METAR Data
IDs: Format: Raw Decoded Include TAF

Data at: 0045 UTC 20 Jul 2019

METAR for:KCAV (Clarion Muni, IA, US)
Text:KCAV 200035Z AUTO 21011KT 10SM CLR 32/27 A2968 RMK AO2 PWINO
Temperature: 32.0°C ( 90°F)
Dewpoint: 27.0°C ( 81°F) [RH = 75%]
Pressure (altimeter):29.68 inches Hg (1005.2 mb)
Winds:from the SSW (210 degrees) at 13 MPH (11 knots; 5.7 m/s)
Visibility:10 or more sm (16+ km)
Ceiling:at least 12,000 feet AGL
Clouds:sky clear below 12,000 feet AGL
QC Flag:automated observation with no human augmentation